createdAt,value
2018-04-13T00:00:54.734Z,84.32
2018-04-13T00:01:54.911Z,84.42
2018-04-13T00:02:55.097Z,84.70
2018-04-13T00:03:55.277Z,84.42
2018-04-13T00:04:55.449Z,84.70
2018-04-13T00:05:55.619Z,83.84
2018-04-13T00:06:55.798Z,84.23
2018-04-13T00:07:55.972Z,83.65
2018-04-13T00:08:56.153Z,84.61
2018-04-13T00:09:56.336Z,85.24
2018-04-13T00:10:56.512Z,85.33
2018-04-13T00:11:56.692Z,85.90
2018-04-13T00:12:56.864Z,85.62
2018-04-13T00:13:57.040Z,84.85
2018-04-13T00:14:57.222Z,84.95
2018-04-13T00:15:57.403Z,84.28
2018-04-13T00:16:57.589Z,84.76
2018-04-13T00:17:57.775Z,84.19
2018-04-13T00:18:57.966Z,84.28
2018-04-13T00:19:58.139Z,84.47
2018-04-13T00:20:58.310Z,84.56
2018-04-13T00:21:58.487Z,84.47
2018-04-13T00:22:58.663Z,84.32
2018-04-13T00:23:58.842Z,83.94
2018-04-13T00:24:59.017Z,84.42
2018-04-13T00:25:59.190Z,84.23
2018-04-13T00:26:59.362Z,84.38
2018-04-13T00:27:59.542Z,84.09
2018-04-13T00:28:59.722Z,84.56
2018-04-13T00:29:59.894Z,85.05
2018-04-13T00:31:00.068Z,84.66
2018-04-13T00:32:00.250Z,85.05
2018-04-13T00:33:00.428Z,85.52
2018-04-13T00:34:00.604Z,85.62
2018-04-13T00:35:00.782Z,85.62
2018-04-13T00:36:00.961Z,84.95
2018-04-13T00:37:01.139Z,84.66
2018-04-13T00:38:01.322Z,84.76
2018-04-13T00:39:01.497Z,84.95
2018-04-13T00:40:01.675Z,84.95
2018-04-13T00:41:01.856Z,84.85
2018-04-13T00:42:02.031Z,85.05
2018-04-13T00:43:02.211Z,84.56
2018-04-13T00:44:02.390Z,84.56
2018-04-13T00:45:02.566Z,84.56
2018-04-13T00:46:02.746Z,84.66
2018-04-13T00:47:02.920Z,84.28
2018-04-13T00:48:03.101Z,84.56
2018-04-13T00:49:03.278Z,83.99
2018-04-13T00:50:03.458Z,84.56
2018-04-13T00:51:03.635Z,84.09
2018-04-13T00:52:03.815Z,84.47
2018-04-13T00:53:03.997Z,85.24
2018-04-13T00:54:04.176Z,85.52
2018-04-13T00:55:04.359Z,85.14
2018-04-13T00:56:04.540Z,84.95
2018-04-13T00:57:04.716Z,84.66
2018-04-13T00:58:04.896Z,85.42
2018-04-13T00:59:05.070Z,85.62
2018-04-13T01:00:05.248Z,85.52
2018-04-13T01:01:05.426Z,85.71
2018-04-13T01:02:05.603Z,85.71
2018-04-13T01:03:05.789Z,85.71
2018-04-13T01:04:05.963Z,85.52
2018-04-13T01:05:06.145Z,85.05
2018-04-13T01:06:06.328Z,85.14
2018-04-13T01:07:06.502Z,85.33
2018-04-13T01:08:06.678Z,86.29
2018-04-13T01:09:06.860Z,86.67
2018-04-13T01:10:07.024Z,86.57
2018-04-13T01:11:07.200Z,86.38
2018-04-13T01:12:07.376Z,86.00
2018-04-13T01:13:07.555Z,85.90
2018-04-13T01:14:07.737Z,85.52
2018-04-13T01:15:07.911Z,86.10
2018-04-13T01:16:08.090Z,86.57
2018-04-13T01:17:08.271Z,86.67
2018-04-13T01:18:08.446Z,85.90
2018-04-13T01:19:08.628Z,85.90
2018-04-13T01:20:08.809Z,86.10
2018-04-13T01:21:08.982Z,86.19
2018-04-13T01:22:09.173Z,86.05
2018-04-13T01:23:09.358Z,86.29
2018-04-13T01:24:09.543Z,86.63
2018-04-13T01:25:09.723Z,86.34
2018-04-13T01:26:09.906Z,86.38
2018-04-13T01:27:10.081Z,86.29
2018-04-13T01:28:10.261Z,86.43
2018-04-13T01:29:10.431Z,86.47
2018-04-13T01:30:10.607Z,86.76
2018-04-13T01:31:10.783Z,86.91
2018-04-13T01:32:10.955Z,87.01
2018-04-13T01:33:11.135Z,87.10
2018-04-13T01:34:11.303Z,87.20
2018-04-13T01:35:11.477Z,87.58
2018-04-13T01:36:11.652Z,87.29
2018-04-13T01:37:11.834Z,88.15
2018-04-13T01:38:12.015Z,88.44
2018-04-13T01:39:12.194Z,88.25
2018-04-13T01:40:12.368Z,88.82
2018-04-13T01:41:12.544Z,87.96
2018-04-13T01:42:12.724Z,88.34
2018-04-13T01:43:12.894Z,88.06
2018-04-13T01:44:13.069Z,88.06
2018-04-13T01:45:13.248Z,87.29
2018-04-13T01:46:13.431Z,87.53
2018-04-13T01:47:13.611Z,87.72
2018-04-13T01:48:13.787Z,86.96
2018-04-13T01:49:13.967Z,86.67
2018-04-13T01:50:14.142Z,86.43
2018-04-13T01:51:14.326Z,86.29
2018-04-13T01:52:14.502Z,86.47
2018-04-13T01:53:14.672Z,86.57
2018-04-13T01:54:14.857Z,86.76
2018-04-13T01:55:15.047Z,86.47
2018-04-13T01:56:15.225Z,87.05
2018-04-13T01:57:15.404Z,87.05
2018-04-13T01:58:15.588Z,86.82
2018-04-13T01:59:15.777Z,87.48
2018-04-13T02:00:15.953Z,87.62
2018-04-13T02:01:16.127Z,86.82
2018-04-13T02:02:19.202Z,87.29
2018-04-13T02:03:16.411Z,86.38
2018-04-13T02:04:16.594Z,86.38
2018-04-13T02:05:16.767Z,86.53
2018-04-13T02:06:16.939Z,86.72
2018-04-13T02:07:17.108Z,86.34
2018-04-13T02:08:17.285Z,86.57
2018-04-13T02:09:17.459Z,86.29
2018-04-13T02:10:17.642Z,86.63
2018-04-13T02:11:17.821Z,86.67
2018-04-13T02:12:18.001Z,86.53
2018-04-13T02:13:18.179Z,86.05
2018-04-13T02:14:18.354Z,86.43
2018-04-13T02:15:18.527Z,86.57
2018-04-13T02:16:18.700Z,86.05
2018-04-13T02:17:18.886Z,86.19
2018-04-13T02:18:19.066Z,86.19
2018-04-13T02:19:19.238Z,86.63
2018-04-13T02:20:19.416Z,86.53
2018-04-13T02:21:19.594Z,86.34
2018-04-13T02:22:19.781Z,86.63
2018-04-13T02:23:19.947Z,86.24
2018-04-13T02:24:20.129Z,87.10
2018-04-13T02:25:20.314Z,87.01
2018-04-13T02:26:20.491Z,86.53
2018-04-13T02:27:20.678Z,86.24
2018-04-13T02:28:20.852Z,86.72
2018-04-13T02:29:21.032Z,86.24
2018-04-13T02:30:21.207Z,86.05
2018-04-13T02:31:21.376Z,85.77
2018-04-13T02:32:21.555Z,85.77
2018-04-13T02:33:21.733Z,86.15
2018-04-13T02:34:22.064Z,86.34
2018-04-13T02:35:22.085Z,87.01
2018-04-13T02:36:22.256Z,87.20
2018-04-13T02:37:22.435Z,87.01
2018-04-13T02:38:22.611Z,86.82
2018-04-13T02:39:22.788Z,87.15
2018-04-13T02:40:22.968Z,87.25
2018-04-13T02:41:23.145Z,87.44
2018-04-13T02:42:23.321Z,87.54
2018-04-13T02:43:23.497Z,88.01
2018-04-13T02:44:23.679Z,87.44
2018-04-13T02:45:23.859Z,87.44
2018-04-13T02:46:24.035Z,88.01
2018-04-13T02:47:24.214Z,87.82
2018-04-13T02:48:24.398Z,87.15
2018-04-13T02:49:24.577Z,87.44
2018-04-13T02:50:24.755Z,87.63
2018-04-13T02:51:24.975Z,87.92
2018-04-13T02:52:25.124Z,87.92
2018-04-13T02:53:25.305Z,87.44
2018-04-13T02:54:25.487Z,88.01
2018-04-13T02:55:25.661Z,88.20
2018-04-13T02:56:25.831Z,88.68
2018-04-13T02:57:26.009Z,88.78
2018-04-13T02:58:26.193Z,88.11
2018-04-13T02:59:26.368Z,88.11
2018-04-13T03:00:26.544Z,88.30
2018-04-13T03:01:26.723Z,88.01
2018-04-13T03:02:26.901Z,88.40
2018-04-13T03:03:27.076Z,88.20
2018-04-13T03:04:27.249Z,88.78
2018-04-13T03:05:27.430Z,88.49
2018-04-13T03:06:27.610Z,88.49
2018-04-13T03:07:27.785Z,88.59
2018-04-13T03:08:27.961Z,88.40
2018-04-13T03:09:28.138Z,88.40
2018-04-13T03:10:28.314Z,88.49
2018-04-13T03:11:28.495Z,88.59
2018-04-13T03:12:28.673Z,88.20
2018-04-13T03:13:28.861Z,88.49
2018-04-13T03:14:29.036Z,88.01
2018-04-13T03:15:29.207Z,88.30
2018-04-13T03:16:29.379Z,88.11
2018-04-13T03:17:29.555Z,88.40
2018-04-13T03:18:29.737Z,88.40
2018-04-13T03:19:29.911Z,88.01
2018-04-13T03:20:30.089Z,87.82
2018-04-13T03:21:30.266Z,88.78
2018-04-13T03:22:30.454Z,88.49
2018-04-13T03:23:30.628Z,88.59
2018-04-13T03:24:30.802Z,88.97
2018-04-13T03:25:30.974Z,88.59
2018-04-13T03:26:31.160Z,89.16
2018-04-13T03:27:31.335Z,89.16
2018-04-13T03:28:31.519Z,89.06
2018-04-13T03:29:31.712Z,89.64
2018-04-13T03:30:31.915Z,89.02
2018-04-13T03:31:32.076Z,88.45
2018-04-13T03:32:32.302Z,88.54
2018-04-13T03:33:32.446Z,88.64
2018-04-13T03:34:32.623Z,88.64
2018-04-13T03:35:32.811Z,88.45
2018-04-13T03:36:32.993Z,88.07
2018-04-13T03:37:33.164Z,88.07
2018-04-13T03:38:33.340Z,88.20
2018-04-13T03:39:33.520Z,87.97
2018-04-13T03:40:33.698Z,88.20
2018-04-13T03:41:33.872Z,87.82
2018-04-13T03:42:34.053Z,87.49
2018-04-13T03:43:34.233Z,87.25
2018-04-13T03:44:34.415Z,87.68
2018-04-13T03:45:34.593Z,87.87
2018-04-13T03:46:34.765Z,87.97
2018-04-13T03:47:34.944Z,87.97
2018-04-13T03:48:35.112Z,88.16
2018-04-13T03:49:35.288Z,88.16
2018-04-13T03:50:35.467Z,88.92
2018-04-13T03:51:35.653Z,88.35
2018-04-13T03:52:35.837Z,88.73
2018-04-13T03:53:36.009Z,89.02
2018-04-13T03:54:36.187Z,88.35
2018-04-13T03:55:37.160Z,88.54
2018-04-13T03:56:36.513Z,88.73
2018-04-13T03:57:36.694Z,88.16
2018-04-13T03:58:36.879Z,88.73
2018-04-13T03:59:37.052Z,88.73
2018-04-13T04:00:37.232Z,88.45
2018-04-13T04:01:37.409Z,88.64
2018-04-13T04:02:37.591Z,88.54
2018-04-13T04:03:37.763Z,88.35
2018-04-13T04:04:37.945Z,89.12
2018-04-13T04:05:38.111Z,89.40
2018-04-13T04:06:38.299Z,89.21
2018-04-13T04:07:38.469Z,89.02
2018-04-13T04:08:38.656Z,89.12
2018-04-13T04:09:38.833Z,89.02
2018-04-13T04:10:39.014Z,89.12
2018-04-13T04:11:39.198Z,89.12
2018-04-13T04:12:39.369Z,89.45
2018-04-13T04:13:39.555Z,89.31
2018-04-13T04:14:39.731Z,89.40
2018-04-13T04:15:39.907Z,89.97
2018-04-13T04:16:40.077Z,89.74
2018-04-13T04:17:40.255Z,89.78
2018-04-13T04:18:40.436Z,89.97
2018-04-13T04:19:40.612Z,89.59
2018-04-13T04:20:40.792Z,89.78
2018-04-13T04:21:40.978Z,89.97
2018-04-13T04:22:41.158Z,89.40
2018-04-13T04:23:41.337Z,89.59
2018-04-13T04:24:41.514Z,89.78
2018-04-13T04:25:41.691Z,89.78
2018-04-13T04:26:41.869Z,89.50
2018-04-13T04:27:42.041Z,89.78
2018-04-13T04:28:42.221Z,89.78
2018-04-13T04:29:44.444Z,89.97
2018-04-13T04:30:43.354Z,89.97
2018-04-13T04:31:45.460Z,90.26
2018-04-13T04:32:44.705Z,90.64
2018-04-13T04:33:45.282Z,89.97
2018-04-13T04:34:44.422Z,89.78
2018-04-13T04:35:43.431Z,89.97
2018-04-13T04:36:43.607Z,89.59
2018-04-13T04:37:43.788Z,90.17
2018-04-13T04:38:43.970Z,89.50
2018-04-13T04:39:44.158Z,89.88
2018-04-13T04:40:44.337Z,89.69
2018-04-13T04:41:44.519Z,89.97
2018-04-13T04:42:44.699Z,89.78
2018-04-13T04:43:44.988Z,89.50
2018-04-13T04:44:45.183Z,90.36
2018-04-13T04:45:45.303Z,90.55
2018-04-13T04:46:45.529Z,90.45
2018-04-13T04:47:45.667Z,90.36
2018-04-13T04:48:45.847Z,90.07
2018-04-13T04:49:46.031Z,89.97
2018-04-13T04:50:46.205Z,89.88
2018-04-13T04:51:46.390Z,89.50
2018-04-13T04:52:46.567Z,89.78
2018-04-13T04:53:46.751Z,89.97
2018-04-13T04:54:46.934Z,89.50
2018-04-13T04:55:47.121Z,89.78
2018-04-13T04:56:47.302Z,89.59
2018-04-13T04:57:47.471Z,90.36
2018-04-13T04:58:47.656Z,90.55
2018-04-13T04:59:47.863Z,90.64
2018-04-13T05:00:48.029Z,90.36
2018-04-13T05:01:48.241Z,90.64
2018-04-13T05:02:48.427Z,90.55
2018-04-13T05:03:48.601Z,90.45
2018-04-13T05:04:48.788Z,90.26
2018-04-13T05:05:48.961Z,89.97
2018-04-13T05:06:49.192Z,89.83
2018-04-13T05:07:49.337Z,90.11
2018-04-13T05:08:49.727Z,90.11
2018-04-13T05:09:49.744Z,89.83
2018-04-13T05:10:49.803Z,89.64
2018-04-13T05:11:50.000Z,89.45
2018-04-13T05:12:50.121Z,89.54
2018-04-13T05:13:50.311Z,90.21
2018-04-13T05:14:50.513Z,90.02
2018-04-13T05:15:50.713Z,89.54
2018-04-13T05:16:50.890Z,89.35
2018-04-13T05:17:51.068Z,89.64
2018-04-13T05:18:51.271Z,89.54
2018-04-13T05:19:51.453Z,89.06
2018-04-13T05:20:51.623Z,89.64
2018-04-13T05:21:51.803Z,90.02
2018-04-13T05:22:51.983Z,89.54
2018-04-13T05:23:52.164Z,90.40
2018-04-13T05:24:52.347Z,90.40
2018-04-13T05:25:52.525Z,90.78
2018-04-13T05:26:52.710Z,90.31
2018-04-13T05:27:52.893Z,89.73
2018-04-13T05:28:53.078Z,89.83
2018-04-13T05:29:53.257Z,89.54
2018-04-13T05:30:53.434Z,90.02
2018-04-13T05:31:53.608Z,90.59
2018-04-13T05:32:53.792Z,90.54
2018-04-13T05:33:53.969Z,90.59
2018-04-13T05:35:00.185Z,89.83
2018-04-13T05:35:55.044Z,89.25
2018-04-13T05:36:54.409Z,89.49
2018-04-13T05:37:54.595Z,89.73
2018-04-13T05:38:54.774Z,90.06
2018-04-13T05:39:54.950Z,90.73
2018-04-13T05:40:55.124Z,90.54
2018-04-13T05:41:55.315Z,90.64
2018-04-13T05:42:55.496Z,90.83
2018-04-13T05:43:55.672Z,90.54
2018-04-13T05:44:55.861Z,90.64
2018-04-13T05:45:56.041Z,89.73
2018-04-13T05:46:56.220Z,89.01
2018-04-13T05:47:56.401Z,88.87
2018-04-13T05:48:56.612Z,88.49
2018-04-13T05:49:56.782Z,89.59
2018-04-13T05:50:56.958Z,89.59
2018-04-13T05:51:57.133Z,90.06
2018-04-13T05:52:57.319Z,90.45
2018-04-13T05:53:57.496Z,90.64
2018-04-13T05:54:57.675Z,91.59
2018-04-13T05:55:57.863Z,91.21
2018-04-13T05:56:58.048Z,90.54
2018-04-13T05:57:58.221Z,90.83
2018-04-13T05:58:58.408Z,91.50
2018-04-13T05:59:58.593Z,91.59
2018-04-13T06:00:58.764Z,91.02
2018-04-13T06:01:58.944Z,90.64
2018-04-13T06:02:59.121Z,90.83
2018-04-13T06:03:59.304Z,91.02
2018-04-13T06:04:59.487Z,91.21
2018-04-13T06:05:59.678Z,91.11
2018-04-13T06:06:59.839Z,91.21
2018-04-13T06:08:00.025Z,90.45
2018-04-13T06:09:00.216Z,91.11
2018-04-13T06:10:00.412Z,91.50
2018-04-13T06:11:00.583Z,91.74
2018-04-13T06:12:00.760Z,91.21
2018-04-13T06:13:00.935Z,90.64
2018-04-13T06:14:01.121Z,90.64
2018-04-13T06:15:01.304Z,90.64
2018-04-13T06:16:01.487Z,90.64
2018-04-13T06:17:01.663Z,90.54
2018-04-13T06:18:01.842Z,90.64
2018-04-13T06:19:02.042Z,90.83
2018-04-13T06:20:02.237Z,90.83
2018-04-13T06:21:02.623Z,90.45
2018-04-13T06:22:02.553Z,90.73
2018-04-13T06:23:02.735Z,91.02
2018-04-13T06:24:02.929Z,91.21
2018-04-13T06:25:03.123Z,91.11
2018-04-13T06:26:03.424Z,90.64
2018-04-13T06:27:03.420Z,90.83
2018-04-13T06:28:03.598Z,90.54
2018-04-13T06:29:03.785Z,91.11
2018-04-13T06:30:05.339Z,90.88
2018-04-13T06:31:04.056Z,91.11
2018-04-13T06:32:04.238Z,90.64
2018-04-13T06:33:04.424Z,91.02
2018-04-13T06:34:04.590Z,91.59
2018-04-13T06:35:04.874Z,91.21
2018-04-13T06:36:05.070Z,91.35
2018-04-13T06:37:05.089Z,91.69
2018-04-13T06:38:05.269Z,91.02
2018-04-13T06:39:05.848Z,91.21
2018-04-13T06:40:05.908Z,90.92
2018-04-13T06:41:05.951Z,91.11
2018-04-13T06:42:06.257Z,91.69
2018-04-13T06:43:06.440Z,92.26
2018-04-13T06:44:06.573Z,92.74
2018-04-13T06:45:07.045Z,92.74
2018-04-13T06:46:07.229Z,92.79
2018-04-13T06:47:07.010Z,92.12
2018-04-13T06:48:07.153Z,92.12
2018-04-13T06:49:09.016Z,92.97
2018-04-13T06:50:07.436Z,93.07
2018-04-13T06:51:07.441Z,93.17
2018-04-13T06:52:07.417Z,92.88
2018-04-13T06:53:07.588Z,93.36
2018-04-13T06:54:07.775Z,92.50
2018-04-13T06:55:08.450Z,92.60
2018-04-13T06:56:08.125Z,92.50
2018-04-13T06:57:08.299Z,92.50
2018-04-13T06:58:08.591Z,92.60
2018-04-13T06:59:08.675Z,92.60
2018-04-13T07:00:08.833Z,93.36
2018-04-13T07:01:09.009Z,92.41
2018-04-13T07:02:09.183Z,93.36
2018-04-13T07:03:09.364Z,92.31
2018-04-13T07:04:09.550Z,92.88
2018-04-13T07:05:09.744Z,92.41
2018-04-13T07:06:09.916Z,92.41
2018-04-13T07:07:10.120Z,92.83
2018-04-13T07:08:10.339Z,92.60
2018-04-13T07:09:10.489Z,92.74
2018-04-13T07:10:10.729Z,92.21
2018-04-13T07:11:10.927Z,91.74
2018-04-13T07:12:11.080Z,91.16
2018-04-13T07:13:11.254Z,91.36
2018-04-13T07:14:11.504Z,91.55
2018-04-13T07:15:11.559Z,92.02
2018-04-13T07:16:11.734Z,92.69
2018-04-13T07:17:14.331Z,92.79
2018-04-13T07:18:12.407Z,92.21
2018-04-13T07:19:12.288Z,92.69
2018-04-13T07:20:12.460Z,92.31
2018-04-13T07:21:12.722Z,91.36
2018-04-13T07:22:12.854Z,91.59
2018-04-13T07:23:13.078Z,91.50
2018-04-13T07:24:13.263Z,90.35
2018-04-13T07:25:13.433Z,90.54
2018-04-13T07:26:13.983Z,90.35
2018-04-13T07:27:13.785Z,90.54
2018-04-13T07:28:13.956Z,91.02
2018-04-13T07:29:16.853Z,91.02
2018-04-13T07:30:14.375Z,91.30
2018-04-13T07:31:14.503Z,91.30
2018-04-13T07:32:15.287Z,91.78
2018-04-13T07:33:14.884Z,91.40
2018-04-13T07:34:15.100Z,91.69
2018-04-13T07:35:15.236Z,91.59
2018-04-13T07:36:15.418Z,91.30
2018-04-13T07:37:16.082Z,91.02
2018-04-13T07:38:15.764Z,91.02
2018-04-13T07:39:16.163Z,90.54
2018-04-13T07:40:16.157Z,90.54
2018-04-13T07:41:16.344Z,90.88
2018-04-13T07:42:16.514Z,89.73
2018-04-13T07:43:16.706Z,89.82
2018-04-13T07:44:16.893Z,90.39
2018-04-13T07:45:17.077Z,90.78
2018-04-13T07:46:17.771Z,90.78
2018-04-13T07:47:17.508Z,91.74
2018-04-13T07:48:18.118Z,91.35
2018-04-13T07:49:17.801Z,91.35
2018-04-13T07:50:17.977Z,91.06
2018-04-13T07:51:18.157Z,90.68
2018-04-13T07:53:18.524Z,89.92
2018-04-13T07:54:18.726Z,89.92
2018-04-13T07:55:18.882Z,89.92
2018-04-13T07:56:19.085Z,90.68
2018-04-13T07:57:19.265Z,90.78
2018-04-13T07:58:19.443Z,90.39
2018-04-13T07:59:19.740Z,90.68
2018-04-13T08:00:20.109Z,90.30
2018-04-13T08:01:19.932Z,89.92
2018-04-13T08:02:20.114Z,90.11
2018-04-13T08:03:20.299Z,89.92
2018-04-13T08:04:20.526Z,90.11
2018-04-13T08:05:20.591Z,90.20
2018-04-13T08:06:20.758Z,89.92
2018-04-13T08:07:20.985Z,89.82
2018-04-13T08:08:21.307Z,89.67
2018-04-13T08:09:21.296Z,90.06
2018-04-13T08:10:21.448Z,89.48
2018-04-13T08:11:21.789Z,89.29
2018-04-13T08:12:21.969Z,88.87
2018-04-13T08:13:22.266Z,89.01
2018-04-13T08:14:22.157Z,88.96
2018-04-13T08:15:22.345Z,89.25
2018-04-13T08:16:22.527Z,88.58
2018-04-13T08:17:22.722Z,89.15
2018-04-13T08:18:23.091Z,89.25
2018-04-13T08:19:23.664Z,89.63
2018-04-13T08:20:23.170Z,89.25
2018-04-13T08:21:23.719Z,89.15
2018-04-13T08:22:23.553Z,88.68
2018-04-13T08:23:23.737Z,88.96
2018-04-13T08:24:23.918Z,89.25
2018-04-13T08:25:24.103Z,88.87
2018-04-13T08:26:24.286Z,89.82
2018-04-13T08:27:24.474Z,89.44
2018-04-13T08:28:24.657Z,89.44
2018-04-13T08:29:24.857Z,89.73
2018-04-13T08:30:25.073Z,89.63
2018-04-13T08:31:25.254Z,89.63
2018-04-13T08:32:25.469Z,90.68
2018-04-13T08:33:25.649Z,91.06
2018-04-13T08:34:25.865Z,90.78
2018-04-13T08:35:26.035Z,90.92
2018-04-13T08:36:26.078Z,90.88
2018-04-13T08:37:26.299Z,91.25
2018-04-13T08:38:26.452Z,90.88
2018-04-13T08:39:26.683Z,90.97
2018-04-13T08:40:26.850Z,90.68
2018-04-13T08:41:27.024Z,91.11
2018-04-13T08:42:27.207Z,91.97
2018-04-13T08:43:27.411Z,90.92
2018-04-13T08:44:27.576Z,90.92
2018-04-13T08:45:27.736Z,91.02
2018-04-13T08:46:27.912Z,91.20
2018-04-13T08:47:28.135Z,91.49
2018-04-13T08:48:28.380Z,91.78
2018-04-13T08:49:28.478Z,91.78
2018-04-13T08:50:28.627Z,91.78
2018-04-13T08:51:28.806Z,91.02
2018-04-13T08:52:28.995Z,90.63
2018-04-13T08:53:29.190Z,90.92
2018-04-13T08:54:29.366Z,91.59
2018-04-13T08:55:29.559Z,91.73
2018-04-13T08:56:29.731Z,91.35
2018-04-13T08:57:29.924Z,90.82
2018-04-13T08:58:30.113Z,90.10
2018-04-13T08:59:30.788Z,90.20
2018-04-13T09:00:30.848Z,89.15
2018-04-13T09:01:30.637Z,89.34
2018-04-13T09:02:30.831Z,89.34
2018-04-13T09:03:31.009Z,89.34
2018-04-13T09:04:31.405Z,88.48
2018-04-13T09:05:31.512Z,88.86
2018-04-13T09:06:33.547Z,89.05
2018-04-13T09:07:31.684Z,88.95
2018-04-13T09:08:31.924Z,88.19
2018-04-13T09:09:32.629Z,88.95
2018-04-13T09:10:32.306Z,88.48
2018-04-13T09:11:32.347Z,88.95
2018-04-13T09:12:32.732Z,88.95
2018-04-13T09:13:32.735Z,89.34
2018-04-13T09:14:32.932Z,89.53
2018-04-13T09:15:33.107Z,89.72
2018-04-13T09:16:33.297Z,89.34
2018-04-13T09:17:33.494Z,88.57
2018-04-13T09:18:33.708Z,88.95
2018-04-13T09:19:34.101Z,88.95
2018-04-13T09:20:34.731Z,87.90
2018-04-13T09:21:34.303Z,87.33
2018-04-13T09:22:34.473Z,88.57
2018-04-13T09:23:34.659Z,89.91
2018-04-13T09:24:34.852Z,89.34
2018-04-13T09:25:35.026Z,89.34
2018-04-13T09:26:35.214Z,89.34
2018-04-13T09:27:35.392Z,89.15
2018-04-13T09:28:35.573Z,89.91
2018-04-13T09:29:35.785Z,89.62
2018-04-13T09:30:35.986Z,90.01
2018-04-13T09:31:36.160Z,90.01
2018-04-13T09:32:36.324Z,90.01
2018-04-13T09:33:36.504Z,90.20
2018-04-13T09:34:36.693Z,89.91
2018-04-13T09:35:40.955Z,90.20
2018-04-13T09:36:37.105Z,90.67
2018-04-13T09:37:37.294Z,90.96
2018-04-13T09:38:37.573Z,90.67
2018-04-13T09:39:37.621Z,90.67
2018-04-13T09:40:37.801Z,90.48
2018-04-13T09:41:37.982Z,90.58
2018-04-13T09:42:38.160Z,90.87
2018-04-13T09:43:38.347Z,91.92
2018-04-13T09:44:38.539Z,91.73
2018-04-13T09:45:38.719Z,91.73
2018-04-13T09:46:38.899Z,90.67
2018-04-13T09:47:39.079Z,90.96
2018-04-13T09:48:39.267Z,90.58
2018-04-13T09:49:39.450Z,90.77
2018-04-13T09:50:39.628Z,90.87
2018-04-13T09:51:39.805Z,91.06
2018-04-13T09:52:39.994Z,90.77
2018-04-13T09:53:40.443Z,90.10
2018-04-13T09:54:40.407Z,89.81
2018-04-13T09:55:40.584Z,90.91
2018-04-13T09:56:40.758Z,90.53
2018-04-13T09:57:41.879Z,90.67
2018-04-13T09:58:41.472Z,90.20
2018-04-13T09:59:41.558Z,89.38
2018-04-13T10:00:41.492Z,89.58
2018-04-13T10:01:41.671Z,90.15
2018-04-13T10:02:43.782Z,89.86
2018-04-13T10:03:41.975Z,88.81
2018-04-13T10:04:42.225Z,88.71
2018-04-13T10:05:42.267Z,88.81
2018-04-13T10:06:42.458Z,87.47
2018-04-13T10:07:42.725Z,87.37
2018-04-13T10:08:42.869Z,87.95
2018-04-13T10:09:43.041Z,88.71
2018-04-13T10:10:43.213Z,88.09
2018-04-13T10:11:43.395Z,88.43
2018-04-13T10:12:43.575Z,88.28
2018-04-13T10:13:43.758Z,88.47
2018-04-13T10:14:43.938Z,88.47
2018-04-13T10:15:44.139Z,88.47
2018-04-13T10:16:44.288Z,87.27
2018-04-13T10:17:44.480Z,86.69
2018-04-13T10:18:44.710Z,85.64
2018-04-13T10:19:44.769Z,85.93
2018-04-13T10:20:44.971Z,85.64
2018-04-13T10:21:45.383Z,85.64
2018-04-13T10:22:45.279Z,87.08
2018-04-13T10:23:45.478Z,86.88
2018-04-13T10:24:45.644Z,84.97
2018-04-13T10:25:45.828Z,84.64
2018-04-13T10:26:46.012Z,84.88
2018-04-13T10:27:46.192Z,85.74
2018-04-13T10:28:46.390Z,85.98
2018-04-13T10:29:46.593Z,86.02
2018-04-13T10:30:46.771Z,86.36
2018-04-13T10:31:46.960Z,85.79
2018-04-13T10:32:47.142Z,85.98
2018-04-13T10:33:47.344Z,86.36
2018-04-13T10:34:47.529Z,87.23
2018-04-13T10:35:47.699Z,88.56
2018-04-13T10:36:47.877Z,87.80
2018-04-13T10:37:48.057Z,87.41
2018-04-13T10:38:48.242Z,86.84
2018-04-13T10:39:48.420Z,85.69
2018-04-13T10:40:48.595Z,85.60
2018-04-13T10:41:48.776Z,85.60
2018-04-13T10:42:50.725Z,85.88
2018-04-13T10:43:49.089Z,86.08
2018-04-13T10:44:49.267Z,86.36
2018-04-13T10:45:49.456Z,87.23
2018-04-13T10:46:49.620Z,87.90
2018-04-13T10:47:49.798Z,87.80
2018-04-13T10:48:49.981Z,87.08
2018-04-13T10:49:50.160Z,87.85
2018-04-13T10:50:50.335Z,87.18
2018-04-13T10:51:50.513Z,87.76
2018-04-13T10:52:50.691Z,88.04
2018-04-13T10:53:51.061Z,88.33
2018-04-13T10:54:51.053Z,88.71
2018-04-13T10:55:51.236Z,88.81
2018-04-13T10:56:51.429Z,89.00
2018-04-13T10:57:51.606Z,88.43
2018-04-13T10:58:51.780Z,87.76
2018-04-13T10:59:51.958Z,87.41
2018-04-13T11:00:52.155Z,86.90
2018-04-13T11:01:52.345Z,86.99
2018-04-13T11:02:52.529Z,87.99
2018-04-13T11:03:53.099Z,87.47
2018-04-13T11:04:52.942Z,87.85
2018-04-13T11:05:53.184Z,86.74
2018-04-13T11:06:53.355Z,87.95
2018-04-13T11:07:53.548Z,88.43
2018-04-13T11:08:55.497Z,87.27
2018-04-13T11:09:53.835Z,87.95
2018-04-13T11:10:54.009Z,88.52
2018-04-13T11:11:54.194Z,88.43
2018-04-13T11:12:54.374Z,87.85
2018-04-13T11:13:54.910Z,87.95
2018-04-13T11:14:54.704Z,88.52
2018-04-13T11:15:54.981Z,88.23
2018-04-13T11:16:55.605Z,87.85
2018-04-13T11:17:55.181Z,88.43
2018-04-13T11:18:55.351Z,88.81
2018-04-13T11:19:55.530Z,89.00
2018-04-13T11:20:55.731Z,88.71
2018-04-13T11:21:55.922Z,88.62
2018-04-13T11:22:56.131Z,87.56
2018-04-13T11:23:56.338Z,88.52
2018-04-13T11:24:56.511Z,89.48
2018-04-13T11:25:56.697Z,89.38
2018-04-13T11:26:56.923Z,89.38
2018-04-13T11:27:56.983Z,88.71
2018-04-13T11:28:57.726Z,89.00
2018-04-13T11:29:57.429Z,88.86
2018-04-13T11:30:57.502Z,88.95
2018-04-13T11:31:57.688Z,88.71
2018-04-13T11:32:57.868Z,87.95
2018-04-13T11:33:58.693Z,88.62
2018-04-13T11:34:58.252Z,88.43
2018-04-13T11:35:58.439Z,88.90
2018-04-13T11:36:58.644Z,87.56
2018-04-13T11:37:58.826Z,87.85
2018-04-13T11:38:59.171Z,88.23
2018-04-13T11:39:59.195Z,88.52
2018-04-13T11:41:00.621Z,88.23
2018-04-13T11:42:00.797Z,87.37
2018-04-13T11:43:00.985Z,88.04
2018-04-13T11:44:00.178Z,88.90
2018-04-13T11:45:00.206Z,89.09
2018-04-13T11:46:00.276Z,89.24
2018-04-13T11:47:01.940Z,89.34
2018-04-13T11:48:02.364Z,89.19
2018-04-13T11:49:00.733Z,88.52
2018-04-13T11:50:00.914Z,88.81
2018-04-13T11:51:01.167Z,88.33
2018-04-13T11:52:01.326Z,88.13
2018-04-13T11:53:01.578Z,88.23
2018-04-13T11:54:01.622Z,88.23
2018-04-13T11:55:01.808Z,87.66
2018-04-13T11:56:01.989Z,88.04
2018-04-13T11:57:02.191Z,88.23
2018-04-13T11:58:02.403Z,88.43
2018-04-13T11:59:02.605Z,89.00
2018-04-13T12:00:02.766Z,89.00
2018-04-13T12:01:03.008Z,89.29
2018-04-13T12:02:03.068Z,89.86
2018-04-13T12:03:03.244Z,89.95
2018-04-13T12:04:03.432Z,89.38
2018-04-13T12:05:03.608Z,89.00
2018-04-13T12:06:03.793Z,90.05
2018-04-13T12:07:03.974Z,89.48
2018-04-13T12:08:04.739Z,89.86
2018-04-13T12:09:04.265Z,90.05
2018-04-13T12:10:04.470Z,90.24
2018-04-13T12:11:04.627Z,90.82
2018-04-13T12:12:04.794Z,91.20
2018-04-13T12:13:04.976Z,90.82
2018-04-13T12:14:05.161Z,89.86
2018-04-13T12:15:05.468Z,90.15
2018-04-13T12:16:05.886Z,90.53
2018-04-13T12:17:05.696Z,91.39
2018-04-13T12:18:05.937Z,91.39
2018-04-13T12:19:06.208Z,91.58
2018-04-13T12:20:06.133Z,91.30
2018-04-13T12:21:06.314Z,90.24
2018-04-13T12:22:06.491Z,89.67
2018-04-13T12:23:06.671Z,89.48
2018-04-13T12:24:06.853Z,89.95
2018-04-13T12:25:07.030Z,90.05
2018-04-13T12:26:07.213Z,90.53
2018-04-13T12:27:07.383Z,90.15
2018-04-13T12:28:07.559Z,91.01
2018-04-13T12:29:07.743Z,90.96
2018-04-13T12:30:07.939Z,90.96
2018-04-13T12:31:08.115Z,91.73
2018-04-13T12:32:08.297Z,91.92
2018-04-13T12:33:08.562Z,91.63
2018-04-13T12:34:08.591Z,91.44
2018-04-13T12:35:08.770Z,91.73
2018-04-13T12:36:08.983Z,91.16
2018-04-13T12:37:09.195Z,90.87
2018-04-13T12:38:09.410Z,90.72
2018-04-13T12:39:10.149Z,91.44
2018-04-13T12:40:10.073Z,91.53
2018-04-13T12:41:10.248Z,91.25
2018-04-13T12:42:10.356Z,90.87
2018-04-13T12:43:10.570Z,91.35
2018-04-13T12:44:10.934Z,90.67
2018-04-13T12:45:10.921Z,91.44
2018-04-13T12:46:10.745Z,91.44
2018-04-13T12:47:10.987Z,91.92
2018-04-13T12:48:11.198Z,91.73
2018-04-13T12:49:11.258Z,91.73
2018-04-13T12:50:11.461Z,91.25
2018-04-13T12:51:12.698Z,90.87
2018-04-13T12:52:12.626Z,91.83
2018-04-13T12:53:12.909Z,91.73
2018-04-13T12:54:12.567Z,91.83
2018-04-13T12:55:13.378Z,91.63
2018-04-13T12:56:13.172Z,91.25